MSC Barbara — HODU — position and weather

sailwx.info

Track history (hours):
 
Tides and Currents Weather Stations Pressure Air Temp Water Temp Dewpoint Dewpoint Depression Visibility Wind Speed Wind Dir Waves Ship Positions

MSC Barbara

Last reported at 2014-Jul-29 20:31 UTC. Time now 2014-Jul-29 20:54 UTC.
Position S 33°55' E 018°27'.

Length 304 m; draft 13.6 m.

Type: Ship (hazmat cat D). MMSI: 353775000.

Date/timePositionNaut miles runAvg speedWind from/ knotsBaromVisibWave heightAir tempDewpointWater temp
2014-Jul-29 20:31S 33°55' E 018°27'0 0.0
2014-Jul-29 19:31S 33°55' E 018°27'0 0.0
2014-Jul-29 18:33S 33°55' E 018°27'0 0.0
2014-Jul-29 17:33S 33°55' E 018°27'0 0.0
2014-Jul-29 16:32S 33°55' E 018°27'0 0.0
2014-Jul-29 15:26S 33°55' E 018°27'0 0.0
2014-Jul-29 14:28S 33°55' E 018°27'0 0.0
2014-Jul-29 13:31S 33°55' E 018°27'0 0.0
2014-Jul-29 12:31S 33°55' E 018°27'0 0.0
2014-Jul-29 11:33S 33°55' E 018°27'0 0.0
2014-Jul-29 10:33S 33°55' E 018°27'0 0.0
2014-Jul-29 09:29S 33°55' E 018°27'0 0.0
2014-Jul-29 08:32S 33°55' E 018°27'0 0.0
2014-Jul-29 07:32S 33°55' E 018°27'5 0.4
2014-Jul-28 18:28S 33°53' E 018°22'8 6.3
2014-Jul-28 17:11S 33°51' E 018°12'2 1.3
2014-Jul-28 15:26S 33°49' E 018°11'1 0.3
2014-Jul-28 10:20S 33°50' E 018°13'2 0.9
2014-Jul-28 08:20S 33°52' E 018°12'9 0.3
2014-Jul-26 22:20S 33°46' E 018°04'13 1.8
2014-Jul-26 15:32S 33°53' E 018°16'11 5.5
2014-Jul-26 13:27S 33°45' E 018°06'6 2.7
2014-Jul-26 11:22S 33°51' E 018°05'7 3.2
2014-Jul-26 09:07S 33°56' E 018°12'2 0.7
2014-Jul-26 06:24S 33°54' E 018°12'2 2.5
2014-Jul-26 05:32S 33°56' E 018°12'1010.5
2014-Jul-26 04:33S 34°06' E 018°15'1614.6
2014-Jul-26 03:28S 34°22' E 018°18'1415.5
2014-Jul-26 02:33S 34°31' E 018°31'1615.9
2014-Jul-26 01:33S 34°38' E 018°48'17515.7
2014-Jul-25 14:27S 34°46' E 022°21'12017.2
2014-Jul-25 07:30S 34°21' E 024°43'1818.2
2014-Jul-25 06:30S 34°17' E 025°04'2418.1
2014-Jul-25 05:10S 34°11' E 025°32'114 2.3
2014-Jul-23 03:10S 33°27' E 027°39'1321.1
2014-Jul-23 02:33S 33°19' E 027°51'9120.4
2014-Jul-22 22:05S 32°17' E 029°10'1620.1
2014-Jul-22 21:17S 32°05' E 029°22'2020.9
2014-Jul-22 20:19S 31°50' E 029°39'1822.7
2014-Jul-22 19:31S 31°37' E 029°54'10020.1
2014-Jul-22 14:31S 30°15' E 031°00'1818.3
2014-Jul-22 13:33S 29°58' E 031°08'7 7.0
2014-Jul-22 12:33S 29°53' E 031°03'2 1.6
2014-Jul-22 11:28S 29°53' E 031°01'0 0.0
2014-Jul-22 10:28S 29°53' E 031°01'0 0.0
2014-Jul-22 09:22S 29°53' E 031°01'0 0.0
2014-Jul-22 08:33S 29°53' E 031°01'0 0.0
2014-Jul-22 07:33S 29°53' E 031°01'0 0.0
2014-Jul-22 06:32S 29°53' E 031°01'0 0.0
2014-Jul-22 05:32S 29°53' E 031°01'0 0.0
2014-Jul-22 04:32S 29°53' E 031°01'0 0.0
2014-Jul-22 03:31S 29°53' E 031°01'0 0.0
2014-Jul-22 02:31S 29°53' E 031°01'0 0.0
2014-Jul-22 01:30S 29°53' E 031°01'0 0.0
2014-Jul-22 00:30S 29°53' E 031°01'0 0.0
2014-Jul-21 23:17S 29°53' E 031°01'0 0.0
2014-Jul-21 22:29S 29°53' E 031°01'0 0.0
2014-Jul-21 21:28S 29°53' E 031°01'0 0.0
2014-Jul-21 20:28S 29°53' E 031°01'0 0.0
2014-Jul-21 20:16S 29°53' E 031°01'0 0.0
2014-Jul-21 19:28S 29°53' E 031°01'0 0.0
2014-Jul-21 18:33S 29°53' E 031°01'0 0.0
2014-Jul-21 17:27S 29°53' E 031°01'0 0.0
2014-Jul-21 16:32S 29°53' E 031°01'0 0.0
2014-Jul-21 15:32S 29°53' E 031°01'0 0.0
2014-Jul-21 14:31S 29°53' E 031°01'0 0.0
2014-Jul-21 13:31S 29°53' E 031°01'0 0.0
2014-Jul-21 12:31S 29°53' E 031°01'0 0.0
2014-Jul-21 11:30S 29°53' E 031°01'0 0.0
2014-Jul-21 10:30S 29°53' E 031°01'0 0.0
2014-Jul-21 09:29S 29°53' E 031°01'0 0.0
2014-Jul-21 08:29S 29°53' E 031°01'0 0.0
2014-Jul-21 07:28S 29°53' E 031°01'0 0.0
2014-Jul-21 06:28S 29°53' E 031°01'0 0.0
2014-Jul-21 05:33S 29°53' E 031°01'0 0.0
2014-Jul-21 04:33S 29°53' E 031°01'0 0.0
2014-Jul-21 03:33S 29°53' E 031°01'0 0.0
2014-Jul-21 02:33S 29°53' E 031°01'0 0.0
2014-Jul-21 01:33S 29°53' E 031°01'0 0.0
2014-Jul-21 00:32S 29°53' E 031°01'0 0.0
2014-Jul-20 23:29S 29°53' E 031°01'0 0.0
2014-Jul-20 22:28S 29°53' E 031°01'0 0.0
2014-Jul-20 21:28S 29°53' E 031°01'0 0.0
2014-Jul-20 20:28S 29°53' E 031°01'0 0.0
2014-Jul-20 19:33S 29°53' E 031°01'0 0.0
2014-Jul-20 18:33S 29°53' E 031°01'0 0.0
2014-Jul-20 17:32S 29°53' E 031°01'0 0.0
2014-Jul-20 16:32S 29°53' E 031°01'0 0.0
2014-Jul-20 15:31S 29°53' E 031°01'0 0.0
2014-Jul-20 14:31S 29°53' E 031°01'0 0.0
2014-Jul-20 13:31S 29°53' E 031°01'0 0.0
2014-Jul-20 12:30S 29°53' E 031°01'0 0.0
2014-Jul-20 11:27S 29°53' E 031°01'0 0.0
2014-Jul-20 10:33S 29°53' E 031°01'0 0.0
2014-Jul-20 09:33S 29°53' E 031°01'0 0.0
2014-Jul-20 08:32S 29°53' E 031°01'0 0.0
2014-Jul-20 07:32S 29°53' E 031°01'0 0.0
2014-Jul-20 06:31S 29°53' E 031°01'0 0.0
2014-Jul-20 05:31S 29°53' E 031°01'0 0.0
2014-Jul-20 04:31S 29°53' E 031°01'0 0.0
2014-Jul-20 03:32S 29°53' E 031°01'0 0.0
2014-Jul-20 02:30S 29°53' E 031°01'0 0.0
2014-Jul-20 01:29S 29°53' E 031°01'0 0.0
2014-Jul-20 00:29S 29°53' E 031°01'0 0.0
2014-Jul-19 23:28S 29°53' E 031°01'0 0.0
2014-Jul-19 22:28S 29°53' E 031°01'0 0.0
2014-Jul-19 21:33S 29°53' E 031°01'0 0.0
2014-Jul-19 20:33S 29°53' E 031°01'  
Track history (hours):
 
Tides and Currents Weather Stations Pressure Air Temp Water Temp Dewpoint Dewpoint Depression Visibility Wind Speed Wind Dir Waves Ship Positions

MSC Barbara

Last reported at 2014-Jul-29 20:31 UTC. Time now 2014-Jul-29 20:54 UTC.
Position S 33°55' E 018°27'.

Length 304 m; draft 13.6 m.

Type: Ship (hazmat cat D). MMSI: 353775000.

Date/timePositionNaut miles runAvg speedWind from/ knotsBaromVisibWave heightAir tempDewpointWater temp
2014-Jul-29 20:31S 33°55' E 018°27'0 0.0
2014-Jul-29 19:31S 33°55' E 018°27'0 0.0
2014-Jul-29 18:33S 33°55' E 018°27'0 0.0
2014-Jul-29 17:33S 33°55' E 018°27'0 0.0
2014-Jul-29 16:32S 33°55' E 018°27'0 0.0
2014-Jul-29 15:26S 33°55' E 018°27'0 0.0
2014-Jul-29 14:28S 33°55' E 018°27'0 0.0
2014-Jul-29 13:31S 33°55' E 018°27'0 0.0
2014-Jul-29 12:31S 33°55' E 018°27'0 0.0
2014-Jul-29 11:33S 33°55' E 018°27'0 0.0
2014-Jul-29 10:33S 33°55' E 018°27'0 0.0
2014-Jul-29 09:29S 33°55' E 018°27'0 0.0
2014-Jul-29 08:32S 33°55' E 018°27'0 0.0
2014-Jul-29 07:32S 33°55' E 018°27'5 0.4
2014-Jul-28 18:28S 33°53' E 018°22'8 6.3
2014-Jul-28 17:11S 33°51' E 018°12'2 1.3
2014-Jul-28 15:26S 33°49' E 018°11'1 0.3
2014-Jul-28 10:20S 33°50' E 018°13'2 0.9
2014-Jul-28 08:20S 33°52' E 018°12'9 0.3
2014-Jul-26 22:20S 33°46' E 018°04'13 1.8
2014-Jul-26 15:32S 33°53' E 018°16'11 5.5
2014-Jul-26 13:27S 33°45' E 018°06'6 2.7
2014-Jul-26 11:22S 33°51' E 018°05'7 3.2
2014-Jul-26 09:07S 33°56' E 018°12'2 0.7
2014-Jul-26 06:24S 33°54' E 018°12'2 2.5
2014-Jul-26 05:32S 33°56' E 018°12'1010.5
2014-Jul-26 04:33S 34°06' E 018°15'1614.6
2014-Jul-26 03:28S 34°22' E 018°18'1415.5
2014-Jul-26 02:33S 34°31' E 018°31'1615.9
2014-Jul-26 01:33S 34°38' E 018°48'17515.7
2014-Jul-25 14:27S 34°46' E 022°21'12017.2
2014-Jul-25 07:30S 34°21' E 024°43'1818.2
2014-Jul-25 06:30S 34°17' E 025°04'2418.1
2014-Jul-25 05:10S 34°11' E 025°32'114 2.3
2014-Jul-23 03:10S 33°27' E 027°39'1321.1
2014-Jul-23 02:33S 33°19' E 027°51'9120.4
2014-Jul-22 22:05S 32°17' E 029°10'1620.1
2014-Jul-22 21:17S 32°05' E 029°22'2020.9
2014-Jul-22 20:19S 31°50' E 029°39'1822.7
2014-Jul-22 19:31S 31°37' E 029°54'10020.1
2014-Jul-22 14:31S 30°15' E 031°00'1818.3
2014-Jul-22 13:33S 29°58' E 031°08'7 7.0
2014-Jul-22 12:33S 29°53' E 031°03'2 1.6
2014-Jul-22 11:28S 29°53' E 031°01'0 0.0
2014-Jul-22 10:28S 29°53' E 031°01'0 0.0
2014-Jul-22 09:22S 29°53' E 031°01'0 0.0
2014-Jul-22 08:33S 29°53' E 031°01'0 0.0
2014-Jul-22 07:33S 29°53' E 031°01'0 0.0
2014-Jul-22 06:32S 29°53' E 031°01'0 0.0
2014-Jul-22 05:32S 29°53' E 031°01'0 0.0
2014-Jul-22 04:32S 29°53' E 031°01'0 0.0
2014-Jul-22 03:31S 29°53' E 031°01'0 0.0
2014-Jul-22 02:31S 29°53' E 031°01'0 0.0
2014-Jul-22 01:30S 29°53' E 031°01'0 0.0
2014-Jul-22 00:30S 29°53' E 031°01'0 0.0
2014-Jul-21 23:17S 29°53' E 031°01'0 0.0
2014-Jul-21 22:29S 29°53' E 031°01'0 0.0
2014-Jul-21 21:28S 29°53' E 031°01'0 0.0
2014-Jul-21 20:28S 29°53' E 031°01'0 0.0
2014-Jul-21 20:16S 29°53' E 031°01'0 0.0
2014-Jul-21 19:28S 29°53' E 031°01'0 0.0
2014-Jul-21 18:33S 29°53' E 031°01'0 0.0
2014-Jul-21 17:27S 29°53' E 031°01'0 0.0
2014-Jul-21 16:32S 29°53' E 031°01'0 0.0
2014-Jul-21 15:32S 29°53' E 031°01'0 0.0
2014-Jul-21 14:31S 29°53' E 031°01'0 0.0
2014-Jul-21 13:31S 29°53' E 031°01'0 0.0
2014-Jul-21 12:31S 29°53' E 031°01'0 0.0
2014-Jul-21 11:30S 29°53' E 031°01'0 0.0
2014-Jul-21 10:30S 29°53' E 031°01'0 0.0
2014-Jul-21 09:29S 29°53' E 031°01'0 0.0
2014-Jul-21 08:29S 29°53' E 031°01'0 0.0
2014-Jul-21 07:28S 29°53' E 031°01'0 0.0
2014-Jul-21 06:28S 29°53' E 031°01'0 0.0
2014-Jul-21 05:33S 29°53' E 031°01'0 0.0
2014-Jul-21 04:33S 29°53' E 031°01'0 0.0
2014-Jul-21 03:33S 29°53' E 031°01'0 0.0
2014-Jul-21 02:33S 29°53' E 031°01'0 0.0
2014-Jul-21 01:33S 29°53' E 031°01'0 0.0
2014-Jul-21 00:32S 29°53' E 031°01'0 0.0
2014-Jul-20 23:29S 29°53' E 031°01'0 0.0
2014-Jul-20 22:28S 29°53' E 031°01'0 0.0
2014-Jul-20 21:28S 29°53' E 031°01'0 0.0
2014-Jul-20 20:28S 29°53' E 031°01'0 0.0
2014-Jul-20 19:33S 29°53' E 031°01'0 0.0
2014-Jul-20 18:33S 29°53' E 031°01'0 0.0
2014-Jul-20 17:32S 29°53' E 031°01'0 0.0
2014-Jul-20 16:32S 29°53' E 031°01'0 0.0
2014-Jul-20 15:31S 29°53' E 031°01'0 0.0
2014-Jul-20 14:31S 29°53' E 031°01'0 0.0
2014-Jul-20 13:31S 29°53' E 031°01'0 0.0
2014-Jul-20 12:30S 29°53' E 031°01'0 0.0
2014-Jul-20 11:27S 29°53' E 031°01'0 0.0
2014-Jul-20 10:33S 29°53' E 031°01'0 0.0
2014-Jul-20 09:33S 29°53' E 031°01'0 0.0
2014-Jul-20 08:32S 29°53' E 031°01'0 0.0
2014-Jul-20 07:32S 29°53' E 031°01'0 0.0
2014-Jul-20 06:31S 29°53' E 031°01'0 0.0
2014-Jul-20 05:31S 29°53' E 031°01'0 0.0
2014-Jul-20 04:31S 29°53' E 031°01'0 0.0
2014-Jul-20 03:32S 29°53' E 031°01'0 0.0
2014-Jul-20 02:30S 29°53' E 031°01'0 0.0
2014-Jul-20 01:29S 29°53' E 031°01'0 0.0
2014-Jul-20 00:29S 29°53' E 031°01'0 0.0
2014-Jul-19 23:28S 29°53' E 031°01'0 0.0
2014-Jul-19 22:28S 29°53' E 031°01'0 0.0
2014-Jul-19 21:33S 29°53' E 031°01'0 0.0
2014-Jul-19 20:33S 29°53' E 031°01'  

Dump ship's entire track history